sensor_id;sensor_type;location;lat;lon;timestamp;temperature;humidity
61145;DHT22;47026;51.208;3.288;2022-07-26T00:02:17;19.60;99.90
61145;DHT22;47026;51.208;3.288;2022-07-26T00:04:43;19.70;99.90
61145;DHT22;47026;51.208;3.288;2022-07-26T00:07:09;19.60;99.90
61145;DHT22;47026;51.208;3.288;2022-07-26T00:09:35;19.60;99.90
61145;DHT22;47026;51.208;3.288;2022-07-26T00:12:01;19.60;99.90
61145;DHT22;47026;51.208;3.288;2022-07-26T00:14:27;19.50;99.90
61145;DHT22;47026;51.208;3.288;2022-07-26T00:16:53;19.60;99.90
61145;DHT22;47026;51.208;3.288;2022-07-26T00:19:19;19.50;99.90
61145;DHT22;47026;51.208;3.288;2022-07-26T00:21:45;19.60;99.90
61145;DHT22;47026;51.208;3.288;2022-07-26T00:24:11;19.70;99.90
61145;DHT22;47026;51.208;3.288;2022-07-26T00:26:37;19.60;99.90
61145;DHT22;47026;51.208;3.288;2022-07-26T00:29:04;19.40;99.90
61145;DHT22;47026;51.208;3.288;2022-07-26T00:31:30;19.40;99.90
61145;DHT22;47026;51.208;3.288;2022-07-26T00:33:56;19.40;99.90
61145;DHT22;47026;51.208;3.288;2022-07-26T00:36:22;19.50;99.90
61145;DHT22;47026;51.208;3.288;2022-07-26T00:38:49;19.40;99.90
61145;DHT22;47026;51.208;3.288;2022-07-26T00:41:15;19.60;99.90
61145;DHT22;47026;51.208;3.288;2022-07-26T00:43:58;19.70;99.90
61145;DHT22;47026;51.208;3.288;2022-07-26T00:46:24;19.60;99.90
61145;DHT22;47026;51.208;3.288;2022-07-26T00:48:50;19.50;99.90
61145;DHT22;47026;51.208;3.288;2022-07-26T00:51:17;19.50;99.90
61145;DHT22;47026;51.208;3.288;2022-07-26T00:53:44;19.50;99.90
61145;DHT22;47026;51.208;3.288;2022-07-26T00:56:12;19.60;99.90
61145;DHT22;47026;51.208;3.288;2022-07-26T00:58:39;19.60;99.90
61145;DHT22;47026;51.208;3.288;2022-07-26T01:01:05;19.50;99.90
61145;DHT22;47026;51.208;3.288;2022-07-26T01:03:31;19.50;99.90
61145;DHT22;47026;51.208;3.288;2022-07-26T01:05:57;19.40;99.90
61145;DHT22;47026;51.208;3.288;2022-07-26T01:08:24;19.40;99.90
61145;DHT22;47026;51.208;3.288;2022-07-26T01:10:50;19.30;99.90
61145;DHT22;47026;51.208;3.288;2022-07-26T01:13:20;19.40;99.90
61145;DHT22;47026;51.208;3.288;2022-07-26T01:15:47;19.40;99.90
61145;DHT22;47026;51.208;3.288;2022-07-26T01:18:13;19.40;99.90
61145;DHT22;47026;51.208;3.288;2022-07-26T01:20:40;19.30;99.90
61145;DHT22;47026;51.208;3.288;2022-07-26T01:23:07;19.30;99.90
61145;DHT22;47026;51.208;3.288;2022-07-26T01:25:35;19.40;99.90
61145;DHT22;47026;51.208;3.288;2022-07-26T01:28:02;19.40;99.90
61145;DHT22;47026;51.208;3.288;2022-07-26T01:30:28;19.20;99.90
61145;DHT22;47026;51.208;3.288;2022-07-26T01:32:54;19.10;99.90
61145;DHT22;47026;51.208;3.288;2022-07-26T01:35:20;19.00;99.90
61145;DHT22;47026;51.208;3.288;2022-07-26T01:37:46;19.10;99.90
61145;DHT22;47026;51.208;3.288;2022-07-26T01:40:13;18.90;99.90
61145;DHT22;47026;51.208;3.288;2022-07-26T01:42:39;19.00;99.90
61145;DHT22;47026;51.208;3.288;2022-07-26T01:45:07;19.00;99.90
61145;DHT22;47026;51.208;3.288;2022-07-26T01:47:33;19.00;99.90
61145;DHT22;47026;51.208;3.288;2022-07-26T01:49:59;19.10;99.90
61145;DHT22;47026;51.208;3.288;2022-07-26T01:52:28;19.00;99.90
61145;DHT22;47026;51.208;3.288;2022-07-26T01:54:54;18.90;99.90
61145;DHT22;47026;51.208;3.288;2022-07-26T01:57:20;18.90;99.90
61145;DHT22;47026;51.208;3.288;2022-07-26T01:59:46;18.90;99.90
61145;DHT22;47026;51.208;3.288;2022-07-26T02:02:12;18.90;99.90
61145;DHT22;47026;51.208;3.288;2022-07-26T02:04:38;18.90;99.90
61145;DHT22;47026;51.208;3.288;2022-07-26T02:07:22;19.00;99.90
61145;DHT22;47026;51.208;3.288;2022-07-26T02:09:48;19.10;99.90
61145;DHT22;47026;51.208;3.288;2022-07-26T02:12:14;19.10;99.90
61145;DHT22;47026;51.208;3.288;2022-07-26T02:14:40;18.90;99.90
61145;DHT22;47026;51.208;3.288;2022-07-26T02:17:07;19.00;99.90
61145;DHT22;47026;51.208;3.288;2022-07-26T02:19:33;19.10;99.90
61145;DHT22;47026;51.208;3.288;2022-07-26T02:21:59;19.10;99.90
61145;DHT22;47026;51.208;3.288;2022-07-26T02:24:26;18.90;99.90
61145;DHT22;47026;51.208;3.288;2022-07-26T02:26:56;18.80;99.90
61145;DHT22;47026;51.208;3.288;2022-07-26T02:29:23;18.90;99.90
61145;DHT22;47026;51.208;3.288;2022-07-26T02:31:49;19.00;99.90
61145;DHT22;47026;51.208;3.288;2022-07-26T02:34:15;19.00;99.90
61145;DHT22;47026;51.208;3.288;2022-07-26T02:36:41;19.00;99.90
61145;DHT22;47026;51.208;3.288;2022-07-26T02:39:08;19.00;99.90
61145;DHT22;47026;51.208;3.288;2022-07-26T02:41:33;19.10;99.90
61145;DHT22;47026;51.208;3.288;2022-07-26T02:43:59;19.00;99.90
61145;DHT22;47026;51.208;3.288;2022-07-26T02:46:25;19.00;99.90
61145;DHT22;47026;51.208;3.288;2022-07-26T02:48:51;19.00;99.90
61145;DHT22;47026;51.208;3.288;2022-07-26T02:51:17;19.00;99.90
61145;DHT22;47026;51.208;3.288;2022-07-26T02:53:43;19.00;99.90
61145;DHT22;47026;51.208;3.288;2022-07-26T02:56:09;18.90;99.90
61145;DHT22;47026;51.208;3.288;2022-07-26T02:58:36;19.00;99.90
61145;DHT22;47026;51.208;3.288;2022-07-26T03:01:03;19.00;99.90
61145;DHT22;47026;51.208;3.288;2022-07-26T03:03:29;19.00;99.90
61145;DHT22;47026;51.208;3.288;2022-07-26T03:05:55;19.00;99.90
61145;DHT22;47026;51.208;3.288;2022-07-26T03:08:21;19.10;99.90
61145;DHT22;47026;51.208;3.288;2022-07-26T03:10:47;19.00;99.90
61145;DHT22;47026;51.208;3.288;2022-07-26T03:13:13;18.80;99.90
61145;DHT22;47026;51.208;3.288;2022-07-26T03:15:39;18.70;99.90
61145;DHT22;47026;51.208;3.288;2022-07-26T03:18:05;18.70;99.90
61145;DHT22;47026;51.208;3.288;2022-07-26T03:20:31;18.60;99.90
61145;DHT22;47026;51.208;3.288;2022-07-26T03:22:57;18.50;99.90
61145;DHT22;47026;51.208;3.288;2022-07-26T03:25:23;18.50;99.90
61145;DHT22;47026;51.208;3.288;2022-07-26T03:27:49;18.50;99.90
61145;DHT22;47026;51.208;3.288;2022-07-26T03:30:15;18.50;99.90
61145;DHT22;47026;51.208;3.288;2022-07-26T03:32:41;18.50;99.90
61145;DHT22;47026;51.208;3.288;2022-07-26T03:35:07;18.50;99.90
61145;DHT22;47026;51.208;3.288;2022-07-26T03:37:33;18.50;99.90
61145;DHT22;47026;51.208;3.288;2022-07-26T03:39:59;18.60;99.90
61145;DHT22;47026;51.208;3.288;2022-07-26T03:42:25;18.60;99.90
61145;DHT22;47026;51.208;3.288;2022-07-26T03:44:51;18.60;99.90
61145;DHT22;47026;51.208;3.288;2022-07-26T03:47:17;18.50;99.90
61145;DHT22;47026;51.208;3.288;2022-07-26T03:49:43;18.30;99.90
61145;DHT22;47026;51.208;3.288;2022-07-26T03:52:09;18.20;99.90
61145;DHT22;47026;51.208;3.288;2022-07-26T03:54:36;18.30;99.90
61145;DHT22;47026;51.208;3.288;2022-07-26T03:57:02;18.30;99.90
61145;DHT22;47026;51.208;3.288;2022-07-26T03:59:28;18.30;99.90
61145;DHT22;47026;51.208;3.288;2022-07-26T04:01:54;18.40;99.90
61145;DHT22;47026;51.208;3.288;2022-07-26T04:04:20;18.50;99.90
61145;DHT22;47026;51.208;3.288;2022-07-26T04:06:46;18.60;99.90
61145;DHT22;47026;51.208;3.288;2022-07-26T04:09:13;18.70;99.90
61145;DHT22;47026;51.208;3.288;2022-07-26T04:11:41;18.70;99.90
61145;DHT22;47026;51.208;3.288;2022-07-26T04:14:07;18.80;99.90
61145;DHT22;47026;51.208;3.288;2022-07-26T04:16:33;18.80;99.90
61145;DHT22;47026;51.208;3.288;2022-07-26T04:19:00;18.70;99.90
61145;DHT22;47026;51.208;3.288;2022-07-26T04:21:26;18.80;99.90
61145;DHT22;47026;51.208;3.288;2022-07-26T04:23:52;18.70;99.90
61145;DHT22;47026;51.208;3.288;2022-07-26T04:26:19;18.80;99.90
61145;DHT22;47026;51.208;3.288;2022-07-26T04:28:46;18.70;99.90
61145;DHT22;47026;51.208;3.288;2022-07-26T04:31:12;19.00;99.90
61145;DHT22;47026;51.208;3.288;2022-07-26T04:33:38;18.90;99.90
61145;DHT22;47026;51.208;3.288;2022-07-26T04:36:04;18.70;99.90
61145;DHT22;47026;51.208;3.288;2022-07-26T04:38:30;18.70;99.90
61145;DHT22;47026;51.208;3.288;2022-07-26T04:40:56;18.90;99.90
61145;DHT22;47026;51.208;3.288;2022-07-26T04:43:23;19.00;99.90
61145;DHT22;47026;51.208;3.288;2022-07-26T04:45:49;19.00;99.90
61145;DHT22;47026;51.208;3.288;2022-07-26T04:48:15;19.00;99.90
61145;DHT22;47026;51.208;3.288;2022-07-26T04:50:42;19.00;99.90
61145;DHT22;47026;51.208;3.288;2022-07-26T04:53:08;19.10;99.90
61145;DHT22;47026;51.208;3.288;2022-07-26T04:55:36;19.10;99.90
61145;DHT22;47026;51.208;3.288;2022-07-26T04:58:03;19.10;99.90
61145;DHT22;47026;51.208;3.288;2022-07-26T05:00:29;19.00;99.90
61145;DHT22;47026;51.208;3.288;2022-07-26T05:02:56;19.00;99.90
61145;DHT22;47026;51.208;3.288;2022-07-26T05:05:24;19.10;99.90
61145;DHT22;47026;51.208;3.288;2022-07-26T05:07:55;19.20;99.90
61145;DHT22;47026;51.208;3.288;2022-07-26T05:10:30;19.10;99.90
61145;DHT22;47026;51.208;3.288;2022-07-26T05:12:57;19.10;99.90
61145;DHT22;47026;51.208;3.288;2022-07-26T05:15:23;19.30;99.90
61145;DHT22;47026;51.208;3.288;2022-07-26T05:17:49;19.20;99.90
61145;DHT22;47026;51.208;3.288;2022-07-26T05:20:15;19.20;99.90
61145;DHT22;47026;51.208;3.288;2022-07-26T05:22:43;19.30;99.90
61145;DHT22;47026;51.208;3.288;2022-07-26T05:25:09;19.20;99.90
61145;DHT22;47026;51.208;3.288;2022-07-26T05:27:35;19.30;99.90
61145;DHT22;47026;51.208;3.288;2022-07-26T05:30:01;19.30;99.90
61145;DHT22;47026;51.208;3.288;2022-07-26T05:32:27;19.40;99.90
61145;DHT22;47026;51.208;3.288;2022-07-26T05:34:53;19.50;99.90
61145;DHT22;47026;51.208;3.288;2022-07-26T05:37:19;19.40;99.90
61145;DHT22;47026;51.208;3.288;2022-07-26T05:39:45;19.40;99.90
61145;DHT22;47026;51.208;3.288;2022-07-26T05:42:11;19.20;99.90
61145;DHT22;47026;51.208;3.288;2022-07-26T05:44:37;19.20;99.90
61145;DHT22;47026;51.208;3.288;2022-07-26T05:47:03;19.20;99.90
61145;DHT22;47026;51.208;3.288;2022-07-26T05:49:29;19.40;99.90
61145;DHT22;47026;51.208;3.288;2022-07-26T05:51:55;19.40;99.90
61145;DHT22;47026;51.208;3.288;2022-07-26T05:54:21;19.60;99.90
61145;DHT22;47026;51.208;3.288;2022-07-26T05:56:47;19.60;99.90
61145;DHT22;47026;51.208;3.288;2022-07-26T05:59:13;19.70;99.90
61145;DHT22;47026;51.208;3.288;2022-07-26T06:01:39;19.80;99.90
61145;DHT22;47026;51.208;3.288;2022-07-26T06:04:05;19.80;99.90
61145;DHT22;47026;51.208;3.288;2022-07-26T06:06:31;19.90;99.90
61145;DHT22;47026;51.208;3.288;2022-07-26T06:08:56;19.90;99.90
61145;DHT22;47026;51.208;3.288;2022-07-26T06:11:22;20.30;99.90
61145;DHT22;47026;51.208;3.288;2022-07-26T06:13:48;20.30;99.90
61145;DHT22;47026;51.208;3.288;2022-07-26T06:16:14;20.30;99.90
61145;DHT22;47026;51.208;3.288;2022-07-26T06:18:40;20.30;99.90
61145;DHT22;47026;51.208;3.288;2022-07-26T06:21:06;20.10;99.90
61145;DHT22;47026;51.208;3.288;2022-07-26T06:23:33;20.20;99.90
61145;DHT22;47026;51.208;3.288;2022-07-26T06:25:59;20.00;99.90
61145;DHT22;47026;51.208;3.288;2022-07-26T06:28:24;19.80;99.90
61145;DHT22;47026;51.208;3.288;2022-07-26T06:30:50;19.90;99.90
61145;DHT22;47026;51.208;3.288;2022-07-26T06:33:16;20.00;99.90
61145;DHT22;47026;51.208;3.288;2022-07-26T06:35:42;20.20;99.90
61145;DHT22;47026;51.208;3.288;2022-07-26T06:38:08;20.30;99.90
61145;DHT22;47026;51.208;3.288;2022-07-26T06:40:34;20.40;99.90
61145;DHT22;47026;51.208;3.288;2022-07-26T06:43:00;20.40;99.90
61145;DHT22;47026;51.208;3.288;2022-07-26T06:45:27;20.50;99.90
61145;DHT22;47026;51.208;3.288;2022-07-26T06:47:54;20.30;99.90
61145;DHT22;47026;51.208;3.288;2022-07-26T06:50:20;20.20;99.90
61145;DHT22;47026;51.208;3.288;2022-07-26T06:52:46;20.40;99.90
61145;DHT22;47026;51.208;3.288;2022-07-26T06:55:12;20.50;99.90
61145;DHT22;47026;51.208;3.288;2022-07-26T06:57:38;20.70;99.90
61145;DHT22;47026;51.208;3.288;2022-07-26T07:00:07;20.70;99.90
61145;DHT22;47026;51.208;3.288;2022-07-26T07:02:33;21.00;99.90
61145;DHT22;47026;51.208;3.288;2022-07-26T07:04:59;21.30;99.90
61145;DHT22;47026;51.208;3.288;2022-07-26T07:07:25;22.00;99.90
61145;DHT22;47026;51.208;3.288;2022-07-26T07:09:51;22.00;99.90
61145;DHT22;47026;51.208;3.288;2022-07-26T07:12:17;21.90;99.90
61145;DHT22;47026;51.208;3.288;2022-07-26T07:14:42;22.10;99.90
61145;DHT22;47026;51.208;3.288;2022-07-26T07:17:08;21.90;99.90
61145;DHT22;47026;51.208;3.288;2022-07-26T07:19:35;22.20;99.90
61145;DHT22;47026;51.208;3.288;2022-07-26T07:22:02;23.30;99.90
61145;DHT22;47026;51.208;3.288;2022-07-26T07:24:28;24.10;99.90
61145;DHT22;47026;51.208;3.288;2022-07-26T07:26:54;23.90;99.90
61145;DHT22;47026;51.208;3.288;2022-07-26T07:29:20;23.40;99.90
61145;DHT22;47026;51.208;3.288;2022-07-26T07:31:47;22.30;99.90
61145;DHT22;47026;51.208;3.288;2022-07-26T07:34:14;22.00;99.90
61145;DHT22;47026;51.208;3.288;2022-07-26T07:36:40;22.00;99.90
61145;DHT22;47026;51.208;3.288;2022-07-26T07:39:06;21.40;99.90
61145;DHT22;47026;51.208;3.288;2022-07-26T07:41:32;21.70;99.90
61145;DHT22;47026;51.208;3.288;2022-07-26T07:43:59;21.80;99.90
61145;DHT22;47026;51.208;3.288;2022-07-26T07:46:26;21.90;99.90
61145;DHT22;47026;51.208;3.288;2022-07-26T07:48:52;22.00;99.90
61145;DHT22;47026;51.208;3.288;2022-07-26T07:51:18;21.50;99.90
61145;DHT22;47026;51.208;3.288;2022-07-26T07:53:43;21.30;99.90
61145;DHT22;47026;51.208;3.288;2022-07-26T07:56:09;21.70;99.90
61145;DHT22;47026;51.208;3.288;2022-07-26T07:58:35;22.20;99.90
61145;DHT22;47026;51.208;3.288;2022-07-26T08:01:02;22.00;99.90
61145;DHT22;47026;51.208;3.288;2022-07-26T08:03:28;21.50;99.90
61145;DHT22;47026;51.208;3.288;2022-07-26T08:05:54;21.10;99.90
61145;DHT22;47026;51.208;3.288;2022-07-26T08:08:20;20.90;99.90
61145;DHT22;47026;51.208;3.288;2022-07-26T08:10:45;20.50;99.90
61145;DHT22;47026;51.208;3.288;2022-07-26T08:13:11;20.60;99.90
61145;DHT22;47026;51.208;3.288;2022-07-26T08:15:37;20.50;99.90
61145;DHT22;47026;51.208;3.288;2022-07-26T08:18:03;20.30;99.90
61145;DHT22;47026;51.208;3.288;2022-07-26T08:20:29;20.20;99.90
61145;DHT22;47026;51.208;3.288;2022-07-26T08:22:55;19.90;99.90
61145;DHT22;47026;51.208;3.288;2022-07-26T08:25:21;19.70;99.90
61145;DHT22;47026;51.208;3.288;2022-07-26T08:27:47;19.70;99.90
61145;DHT22;47026;51.208;3.288;2022-07-26T08:30:13;19.50;99.90
61145;DHT22;47026;51.208;3.288;2022-07-26T08:32:39;19.60;99.90
61145;DHT22;47026;51.208;3.288;2022-07-26T08:35:05;19.50;99.90
61145;DHT22;47026;51.208;3.288;2022-07-26T08:37:31;19.70;99.90
61145;DHT22;47026;51.208;3.288;2022-07-26T08:39:57;19.70;99.90
61145;DHT22;47026;51.208;3.288;2022-07-26T08:42:23;19.40;99.90
61145;DHT22;47026;51.208;3.288;2022-07-26T08:44:50;19.10;99.90
61145;DHT22;47026;51.208;3.288;2022-07-26T08:47:20;18.90;99.90
61145;DHT22;47026;51.208;3.288;2022-07-26T08:49:47;18.90;99.90
61145;DHT22;47026;51.208;3.288;2022-07-26T08:52:13;19.00;99.90
61145;DHT22;47026;51.208;3.288;2022-07-26T08:54:48;19.00;99.90
61145;DHT22;47026;51.208;3.288;2022-07-26T08:57:14;18.70;99.90
61145;DHT22;47026;51.208;3.288;2022-07-26T08:59:40;18.60;99.90
61145;DHT22;47026;51.208;3.288;2022-07-26T09:02:08;18.90;99.90
61145;DHT22;47026;51.208;3.288;2022-07-26T09:04:37;18.90;99.90
61145;DHT22;47026;51.208;3.288;2022-07-26T09:07:09;18.90;99.90
61145;DHT22;47026;51.208;3.288;2022-07-26T09:09:38;19.00;99.90
61145;DHT22;47026;51.208;3.288;2022-07-26T09:12:15;18.90;99.90
61145;DHT22;47026;51.208;3.288;2022-07-26T09:14:41;19.10;99.90
61145;DHT22;47026;51.208;3.288;2022-07-26T09:17:07;19.10;99.90
61145;DHT22;47026;51.208;3.288;2022-07-26T09:19:33;19.10;99.90
61145;DHT22;47026;51.208;3.288;2022-07-26T09:22:07;19.30;99.90
61145;DHT22;47026;51.208;3.288;2022-07-26T09:24:40;19.40;99.90
61145;DHT22;47026;51.208;3.288;2022-07-26T09:27:09;19.40;99.90
61145;DHT22;47026;51.208;3.288;2022-07-26T09:32:21;19.90;99.90
61145;DHT22;47026;51.208;3.288;2022-07-26T09:34:49;19.70;99.90
61145;DHT22;47026;51.208;3.288;2022-07-26T09:37:16;19.60;99.90
61145;DHT22;47026;51.208;3.288;2022-07-26T09:42:59;18.90;99.90
61145;DHT22;47026;51.208;3.288;2022-07-26T09:45:27;18.80;99.90
61145;DHT22;47026;51.208;3.288;2022-07-26T09:47:53;18.80;99.90
61145;DHT22;47026;51.208;3.288;2022-07-26T09:50:24;18.70;99.90
61145;DHT22;47026;51.208;3.288;2022-07-26T09:55:22;18.70;99.90
61145;DHT22;47026;51.208;3.288;2022-07-26T09:57:50;18.70;99.90
61145;DHT22;47026;51.208;3.288;2022-07-26T10:00:16;18.70;99.90
61145;DHT22;47026;51.208;3.288;2022-07-26T10:02:43;18.80;99.90
61145;DHT22;47026;51.208;3.288;2022-07-26T10:05:09;18.60;99.90
61145;DHT22;47026;51.208;3.288;2022-07-26T10:07:36;18.70;99.90
61145;DHT22;47026;51.208;3.288;2022-07-26T10:10:22;19.00;99.90
61145;DHT22;47026;51.208;3.288;2022-07-26T10:12:53;18.90;99.90
61145;DHT22;47026;51.208;3.288;2022-07-26T10:18:04;19.40;99.90
61145;DHT22;47026;51.208;3.288;2022-07-26T10:20:57;19.40;99.90
61145;DHT22;47026;51.208;3.288;2022-07-26T10:23:44;19.60;99.90
61145;DHT22;47026;51.208;3.288;2022-07-26T10:31:48;19.60;99.90
61145;DHT22;47026;51.208;3.288;2022-07-26T10:34:38;19.30;99.90
61145;DHT22;47026;51.208;3.288;2022-07-26T10:37:06;19.20;99.90
61145;DHT22;47026;51.208;3.288;2022-07-26T10:39:33;19.00;99.90
61145;DHT22;47026;51.208;3.288;2022-07-26T10:42:02;19.10;99.90
61145;DHT22;47026;51.208;3.288;2022-07-26T10:44:30;18.90;99.90
61145;DHT22;47026;51.208;3.288;2022-07-26T10:49:43;18.90;99.90
61145;DHT22;47026;51.208;3.288;2022-07-26T10:52:18;18.80;99.90
61145;DHT22;47026;51.208;3.288;2022-07-26T10:57:28;18.90;99.90
61145;DHT22;47026;51.208;3.288;2022-07-26T10:59:55;19.00;99.90
61145;DHT22;47026;51.208;3.288;2022-07-26T11:02:28;19.00;99.90
61145;DHT22;47026;51.208;3.288;2022-07-26T11:05:08;19.10;99.90
61145;DHT22;47026;51.208;3.288;2022-07-26T11:08:12;19.10;99.90
61145;DHT22;47026;51.208;3.288;2022-07-26T11:10:40;18.90;99.90
61145;DHT22;47026;51.208;3.288;2022-07-26T11:13:08;18.90;99.90
61145;DHT22;47026;51.208;3.288;2022-07-26T11:15:39;18.80;99.90
61145;DHT22;47026;51.208;3.288;2022-07-26T11:18:11;19.00;99.90
61145;DHT22;47026;51.208;3.288;2022-07-26T11:20:37;18.90;99.90
61145;DHT22;47026;51.208;3.288;2022-07-26T11:23:06;18.90;99.90
61145;DHT22;47026;51.208;3.288;2022-07-26T11:26:00;19.40;99.90
61145;DHT22;47026;51.208;3.288;2022-07-26T11:28:27;19.20;99.90
61145;DHT22;47026;51.208;3.288;2022-07-26T11:30:57;19.00;99.90
61145;DHT22;47026;51.208;3.288;2022-07-26T11:33:41;18.80;99.90
61145;DHT22;47026;51.208;3.288;2022-07-26T11:36:08;18.70;99.90
61145;DHT22;47026;51.208;3.288;2022-07-26T11:38:49;18.90;99.90
61145;DHT22;47026;51.208;3.288;2022-07-26T11:41:22;19.20;99.90
61145;DHT22;47026;51.208;3.288;2022-07-26T11:43:50;19.60;99.90
61145;DHT22;47026;51.208;3.288;2022-07-26T11:46:16;19.60;99.90
61145;DHT22;47026;51.208;3.288;2022-07-26T11:48:51;19.80;99.90
61145;DHT22;47026;51.208;3.288;2022-07-26T11:51:19;20.00;99.90
61145;DHT22;47026;51.208;3.288;2022-07-26T11:53:46;19.60;99.90
61145;DHT22;47026;51.208;3.288;2022-07-26T11:56:18;19.40;99.90
61145;DHT22;47026;51.208;3.288;2022-07-26T11:58:47;19.10;99.90
61145;DHT22;47026;51.208;3.288;2022-07-26T12:01:16;19.00;99.90
61145;DHT22;47026;51.208;3.288;2022-07-26T12:03:44;18.80;99.90
61145;DHT22;47026;51.208;3.288;2022-07-26T12:06:13;18.90;99.90
61145;DHT22;47026;51.208;3.288;2022-07-26T12:08:48;19.10;99.90
61145;DHT22;47026;51.208;3.288;2022-07-26T12:11:16;19.00;99.90
61145;DHT22;47026;51.208;3.288;2022-07-26T12:13:53;19.20;99.90
61145;DHT22;47026;51.208;3.288;2022-07-26T12:16:40;19.40;99.90
61145;DHT22;47026;51.208;3.288;2022-07-26T12:19:07;19.80;99.90
61145;DHT22;47026;51.208;3.288;2022-07-26T12:21:48;20.10;99.90
61145;DHT22;47026;51.208;3.288;2022-07-26T12:24:41;20.40;99.90
61145;DHT22;47026;51.208;3.288;2022-07-26T12:29:43;20.70;99.90
61145;DHT22;47026;51.208;3.288;2022-07-26T12:32:15;20.70;99.90
61145;DHT22;47026;51.208;3.288;2022-07-26T12:37:22;20.70;99.90
61145;DHT22;47026;51.208;3.288;2022-07-26T12:40:14;20.70;99.90
61145;DHT22;47026;51.208;3.288;2022-07-26T12:45:17;21.20;99.90
61145;DHT22;47026;51.208;3.288;2022-07-26T12:47:44;21.30;99.90
61145;DHT22;47026;51.208;3.288;2022-07-26T12:50:14;21.80;99.90
61145;DHT22;47026;51.208;3.288;2022-07-26T12:52:41;21.60;99.90
61145;DHT22;47026;51.208;3.288;2022-07-26T12:55:09;21.70;99.90
61145;DHT22;47026;51.208;3.288;2022-07-26T12:57:40;21.70;99.90
61145;DHT22;47026;51.208;3.288;2022-07-26T13:00:07;21.50;99.90
61145;DHT22;47026;51.208;3.288;2022-07-26T13:02:36;21.90;99.90
61145;DHT22;47026;51.208;3.288;2022-07-26T13:05:03;22.40;99.90
61145;DHT22;47026;51.208;3.288;2022-07-26T13:07:29;22.50;99.90
61145;DHT22;47026;51.208;3.288;2022-07-26T13:09:56;22.50;99.90
61145;DHT22;47026;51.208;3.288;2022-07-26T13:12:21;22.70;99.90
61145;DHT22;47026;51.208;3.288;2022-07-26T13:14:48;23.00;99.90
61145;DHT22;47026;51.208;3.288;2022-07-26T13:17:14;23.00;99.90
61145;DHT22;47026;51.208;3.288;2022-07-26T13:19:40;22.60;99.90
61145;DHT22;47026;51.208;3.288;2022-07-26T13:22:07;22.40;99.90
61145;DHT22;47026;51.208;3.288;2022-07-26T13:24:34;22.00;99.90
61145;DHT22;47026;51.208;3.288;2022-07-26T13:27:00;22.00;99.90
61145;DHT22;47026;51.208;3.288;2022-07-26T13:29:27;22.50;99.90
61145;DHT22;47026;51.208;3.288;2022-07-26T13:31:53;22.60;99.90
61145;DHT22;47026;51.208;3.288;2022-07-26T13:34:21;22.80;99.90
61145;DHT22;47026;51.208;3.288;2022-07-26T13:36:48;22.50;99.90
61145;DHT22;47026;51.208;3.288;2022-07-26T13:39:15;22.50;99.90
61145;DHT22;47026;51.208;3.288;2022-07-26T13:41:41;22.40;99.90
61145;DHT22;47026;51.208;3.288;2022-07-26T13:44:06;22.20;99.90
61145;DHT22;47026;51.208;3.288;2022-07-26T13:46:33;22.20;99.90
61145;DHT22;47026;51.208;3.288;2022-07-26T13:49:00;22.10;99.90
61145;DHT22;47026;51.208;3.288;2022-07-26T13:51:28;22.30;99.90
61145;DHT22;47026;51.208;3.288;2022-07-26T13:54:15;22.60;99.90
61145;DHT22;47026;51.208;3.288;2022-07-26T13:56:42;23.00;99.90
61145;DHT22;47026;51.208;3.288;2022-07-26T13:59:08;23.10;99.90
61145;DHT22;47026;51.208;3.288;2022-07-26T14:01:34;22.80;99.90
61145;DHT22;47026;51.208;3.288;2022-07-26T14:04:05;23.10;99.90
61145;DHT22;47026;51.208;3.288;2022-07-26T14:06:32;23.60;99.90
61145;DHT22;47026;51.208;3.288;2022-07-26T14:08:58;24.30;99.90
61145;DHT22;47026;51.208;3.288;2022-07-26T14:11:24;24.90;99.90
61145;DHT22;47026;51.208;3.288;2022-07-26T14:13:51;25.10;99.90
61145;DHT22;47026;51.208;3.288;2022-07-26T14:16:17;25.40;99.90
61145;DHT22;47026;51.208;3.288;2022-07-26T14:18:43;25.20;99.90
61145;DHT22;47026;51.208;3.288;2022-07-26T14:21:09;24.80;99.90
61145;DHT22;47026;51.208;3.288;2022-07-26T14:23:35;24.50;99.90
61145;DHT22;47026;51.208;3.288;2022-07-26T14:26:01;23.90;99.90
61145;DHT22;47026;51.208;3.288;2022-07-26T14:28:26;23.20;99.90
61145;DHT22;47026;51.208;3.288;2022-07-26T14:30:52;23.20;99.90
61145;DHT22;47026;51.208;3.288;2022-07-26T14:33:18;23.30;99.90
61145;DHT22;47026;51.208;3.288;2022-07-26T14:35:44;23.70;99.90
61145;DHT22;47026;51.208;3.288;2022-07-26T14:38:11;24.50;99.90
61145;DHT22;47026;51.208;3.288;2022-07-26T14:40:39;24.70;99.90
61145;DHT22;47026;51.208;3.288;2022-07-26T14:43:06;26.10;99.90
61145;DHT22;47026;51.208;3.288;2022-07-26T14:45:32;26.70;99.90
61145;DHT22;47026;51.208;3.288;2022-07-26T14:47:57;26.50;99.90
61145;DHT22;47026;51.208;3.288;2022-07-26T14:50:24;26.10;99.90
61145;DHT22;47026;51.208;3.288;2022-07-26T14:52:54;25.50;99.90
61145;DHT22;47026;51.208;3.288;2022-07-26T14:55:20;25.10;99.90
61145;DHT22;47026;51.208;3.288;2022-07-26T14:57:46;24.80;99.90
61145;DHT22;47026;51.208;3.288;2022-07-26T15:00:14;24.30;99.90
61145;DHT22;47026;51.208;3.288;2022-07-26T15:06:02;22.40;99.90
61145;DHT22;47026;51.208;3.288;2022-07-26T15:08:28;22.30;99.90
61145;DHT22;47026;51.208;3.288;2022-07-26T15:10:54;22.10;99.90
61145;DHT22;47026;51.208;3.288;2022-07-26T15:13:20;22.30;99.90
61145;DHT22;47026;51.208;3.288;2022-07-26T15:15:46;23.60;99.90
61145;DHT22;47026;51.208;3.288;2022-07-26T15:18:12;25.00;99.90
61145;DHT22;47026;51.208;3.288;2022-07-26T15:20:39;24.90;99.90
61145;DHT22;47026;51.208;3.288;2022-07-26T15:23:07;24.50;99.90
61145;DHT22;47026;51.208;3.288;2022-07-26T15:25:36;23.80;99.90
61145;DHT22;47026;51.208;3.288;2022-07-26T15:28:02;22.90;99.90
61145;DHT22;47026;51.208;3.288;2022-07-26T15:30:28;22.60;99.90
61145;DHT22;47026;51.208;3.288;2022-07-26T15:32:55;22.50;99.90
61145;DHT22;47026;51.208;3.288;2022-07-26T15:35:22;22.50;99.90
61145;DHT22;47026;51.208;3.288;2022-07-26T15:37:49;22.70;99.90
61145;DHT22;47026;51.208;3.288;2022-07-26T15:40:15;22.70;99.90
61145;DHT22;47026;51.208;3.288;2022-07-26T15:42:43;22.70;99.90
61145;DHT22;47026;51.208;3.288;2022-07-26T15:45:10;22.90;99.90
61145;DHT22;47026;51.208;3.288;2022-07-26T15:47:38;23.60;99.90
61145;DHT22;47026;51.208;3.288;2022-07-26T15:50:05;23.60;99.90
61145;DHT22;47026;51.208;3.288;2022-07-26T15:52:32;23.00;99.90
61145;DHT22;47026;51.208;3.288;2022-07-26T15:55:00;22.60;99.90
61145;DHT22;47026;51.208;3.288;2022-07-26T15:57:26;22.20;99.90
61145;DHT22;47026;51.208;3.288;2022-07-26T15:59:52;22.30;99.90
61145;DHT22;47026;51.208;3.288;2022-07-26T16:02:18;22.40;99.90
61145;DHT22;47026;51.208;3.288;2022-07-26T16:04:44;22.30;99.90
61145;DHT22;47026;51.208;3.288;2022-07-26T16:07:10;22.20;99.90